sensor_id;sensor_type;location;lat;lon;timestamp;temperature;humidity
10070;DHT22;5074;53.720;10.014;2022-10-26T00:00:50;9.70;99.90
10070;DHT22;5074;53.720;10.014;2022-10-26T00:03:20;9.60;99.90
10070;DHT22;5074;53.720;10.014;2022-10-26T00:05:48;9.70;99.90
10070;DHT22;5074;53.720;10.014;2022-10-26T00:08:16;9.60;99.90
10070;DHT22;5074;53.720;10.014;2022-10-26T00:10:44;9.60;99.90
10070;DHT22;5074;53.720;10.014;2022-10-26T00:13:12;9.50;99.90
10070;DHT22;5074;53.720;10.014;2022-10-26T00:15:40;9.50;99.90
10070;DHT22;5074;53.720;10.014;2022-10-26T00:18:08;9.40;99.90
10070;DHT22;5074;53.720;10.014;2022-10-26T00:20:38;9.30;99.90
10070;DHT22;5074;53.720;10.014;2022-10-26T00:23:06;9.30;99.90
10070;DHT22;5074;53.720;10.014;2022-10-26T00:25:34;9.40;99.90
10070;DHT22;5074;53.720;10.014;2022-10-26T00:28:02;9.40;99.90
10070;DHT22;5074;53.720;10.014;2022-10-26T00:30:30;9.50;99.90
10070;DHT22;5074;53.720;10.014;2022-10-26T00:32:58;9.40;99.90
10070;DHT22;5074;53.720;10.014;2022-10-26T00:35:26;9.50;99.90
10070;DHT22;5074;53.720;10.014;2022-10-26T00:38:12;9.50;99.90
10070;DHT22;5074;53.720;10.014;2022-10-26T00:40:40;9.40;99.90
10070;DHT22;5074;53.720;10.014;2022-10-26T00:43:13;9.30;99.90
10070;DHT22;5074;53.720;10.014;2022-10-26T00:45:42;9.20;99.90
10070;DHT22;5074;53.720;10.014;2022-10-26T00:48:13;9.10;99.90
10070;DHT22;5074;53.720;10.014;2022-10-26T00:50:49;9.20;99.90
10070;DHT22;5074;53.720;10.014;2022-10-26T00:53:22;9.30;99.90
10070;DHT22;5074;53.720;10.014;2022-10-26T00:55:50;9.30;99.90
10070;DHT22;5074;53.720;10.014;2022-10-26T00:58:19;9.30;99.90
10070;DHT22;5074;53.720;10.014;2022-10-26T01:00:49;9.30;99.90
10070;DHT22;5074;53.720;10.014;2022-10-26T01:03:17;9.40;99.90
10070;DHT22;5074;53.720;10.014;2022-10-26T01:05:46;9.50;99.90
10070;DHT22;5074;53.720;10.014;2022-10-26T01:08:16;9.40;99.90
10070;DHT22;5074;53.720;10.014;2022-10-26T01:10:46;9.50;99.90
10070;DHT22;5074;53.720;10.014;2022-10-26T01:13:15;9.60;99.90
10070;DHT22;5074;53.720;10.014;2022-10-26T01:15:47;9.60;99.90
10070;DHT22;5074;53.720;10.014;2022-10-26T01:18:22;9.60;99.90
10070;DHT22;5074;53.720;10.014;2022-10-26T01:24:31;9.40;99.90
10070;DHT22;5074;53.720;10.014;2022-10-26T01:27:14;9.40;99.90
10070;DHT22;5074;53.720;10.014;2022-10-26T01:33:02;9.20;99.90
10070;DHT22;5074;53.720;10.014;2022-10-26T01:35:41;9.20;99.90
10070;DHT22;5074;53.720;10.014;2022-10-26T01:38:19;9.00;99.90
10070;DHT22;5074;53.720;10.014;2022-10-26T01:40:53;8.90;99.90
10070;DHT22;5074;53.720;10.014;2022-10-26T01:43:31;8.80;99.90
10070;DHT22;5074;53.720;10.014;2022-10-26T01:46:03;8.80;99.90
10070;DHT22;5074;53.720;10.014;2022-10-26T01:48:33;8.70;99.90
10070;DHT22;5074;53.720;10.014;2022-10-26T01:51:04;8.70;99.90
10070;DHT22;5074;53.720;10.014;2022-10-26T01:53:33;8.70;99.90
10070;DHT22;5074;53.720;10.014;2022-10-26T01:56:02;8.70;99.90
10070;DHT22;5074;53.720;10.014;2022-10-26T02:04:59;8.30;99.90
10070;DHT22;5074;53.720;10.014;2022-10-26T02:07:39;8.30;99.90
10070;DHT22;5074;53.720;10.014;2022-10-26T02:10:19;8.30;99.90
10070;DHT22;5074;53.720;10.014;2022-10-26T02:12:58;8.40;99.90
10070;DHT22;5074;53.720;10.014;2022-10-26T02:15:32;8.40;99.90
10070;DHT22;5074;53.720;10.014;2022-10-26T02:18:06;8.40;99.90
10070;DHT22;5074;53.720;10.014;2022-10-26T02:20:45;8.30;99.90
10070;DHT22;5074;53.720;10.014;2022-10-26T02:23:18;8.20;99.90
10070;DHT22;5074;53.720;10.014;2022-10-26T02:25:49;8.10;99.90
10070;DHT22;5074;53.720;10.014;2022-10-26T02:28:23;8.10;99.90
10070;DHT22;5074;53.720;10.014;2022-10-26T02:30:55;8.10;99.90
10070;DHT22;5074;53.720;10.014;2022-10-26T02:33:28;8.20;99.90
10070;DHT22;5074;53.720;10.014;2022-10-26T02:36:01;8.40;99.90
10070;DHT22;5074;53.720;10.014;2022-10-26T02:38:33;8.40;99.90
10070;DHT22;5074;53.720;10.014;2022-10-26T02:41:04;8.50;99.90
10070;DHT22;5074;53.720;10.014;2022-10-26T02:43:35;8.50;99.90
10070;DHT22;5074;53.720;10.014;2022-10-26T02:46:09;8.60;99.90
10070;DHT22;5074;53.720;10.014;2022-10-26T02:48:43;8.70;99.90
10070;DHT22;5074;53.720;10.014;2022-10-26T02:51:12;8.70;99.90
10070;DHT22;5074;53.720;10.014;2022-10-26T02:53:46;8.80;99.90
10070;DHT22;5074;53.720;10.014;2022-10-26T02:56:21;8.90;99.90
10070;DHT22;5074;53.720;10.014;2022-10-26T02:58:53;8.90;99.90
10070;DHT22;5074;53.720;10.014;2022-10-26T03:01:26;8.90;99.90
10070;DHT22;5074;53.720;10.014;2022-10-26T03:03:57;8.90;99.90
10070;DHT22;5074;53.720;10.014;2022-10-26T03:06:26;8.80;99.90
10070;DHT22;5074;53.720;10.014;2022-10-26T03:08:54;8.70;99.90
10070;DHT22;5074;53.720;10.014;2022-10-26T03:11:22;8.70;99.90
10070;DHT22;5074;53.720;10.014;2022-10-26T03:13:50;8.80;99.90
10070;DHT22;5074;53.720;10.014;2022-10-26T03:16:18;8.70;99.90
10070;DHT22;5074;53.720;10.014;2022-10-26T03:18:46;8.70;99.90
10070;DHT22;5074;53.720;10.014;2022-10-26T03:21:15;8.60;99.90
10070;DHT22;5074;53.720;10.014;2022-10-26T03:23:43;8.60;99.90
10070;DHT22;5074;53.720;10.014;2022-10-26T03:26:13;8.60;99.90
10070;DHT22;5074;53.720;10.014;2022-10-26T03:28:41;8.50;99.90
10070;DHT22;5074;53.720;10.014;2022-10-26T03:31:09;8.40;99.90
10070;DHT22;5074;53.720;10.014;2022-10-26T03:33:37;8.40;99.90
10070;DHT22;5074;53.720;10.014;2022-10-26T03:36:05;8.50;99.90
10070;DHT22;5074;53.720;10.014;2022-10-26T03:38:35;8.50;99.90
10070;DHT22;5074;53.720;10.014;2022-10-26T03:41:03;8.50;99.90
10070;DHT22;5074;53.720;10.014;2022-10-26T03:43:31;8.50;99.90
10070;DHT22;5074;53.720;10.014;2022-10-26T03:45:59;8.60;99.90
10070;DHT22;5074;53.720;10.014;2022-10-26T03:48:27;8.60;99.90
10070;DHT22;5074;53.720;10.014;2022-10-26T03:50:56;8.70;99.90
10070;DHT22;5074;53.720;10.014;2022-10-26T03:53:24;8.70;99.90
10070;DHT22;5074;53.720;10.014;2022-10-26T03:55:54;8.70;99.90
10070;DHT22;5074;53.720;10.014;2022-10-26T03:58:22;8.60;99.90
10070;DHT22;5074;53.720;10.014;2022-10-26T04:00:51;8.60;99.90
10070;DHT22;5074;53.720;10.014;2022-10-26T04:03:19;8.50;99.90
10070;DHT22;5074;53.720;10.014;2022-10-26T04:05:47;8.40;99.90
10070;DHT22;5074;53.720;10.014;2022-10-26T04:08:14;8.40;99.90
10070;DHT22;5074;53.720;10.014;2022-10-26T04:10:44;8.40;99.90
10070;DHT22;5074;53.720;10.014;2022-10-26T04:13:13;8.30;99.90
10070;DHT22;5074;53.720;10.014;2022-10-26T04:15:41;8.30;99.90
10070;DHT22;5074;53.720;10.014;2022-10-26T04:18:10;8.20;99.90
10070;DHT22;5074;53.720;10.014;2022-10-26T04:20:38;8.10;99.90
10070;DHT22;5074;53.720;10.014;2022-10-26T04:23:09;8.10;99.90
10070;DHT22;5074;53.720;10.014;2022-10-26T04:25:39;8.00;99.90
10070;DHT22;5074;53.720;10.014;2022-10-26T04:28:08;8.00;99.90
10070;DHT22;5074;53.720;10.014;2022-10-26T04:30:38;8.10;99.90
10070;DHT22;5074;53.720;10.014;2022-10-26T04:33:07;8.00;99.90
10070;DHT22;5074;53.720;10.014;2022-10-26T04:35:35;7.90;99.90
10070;DHT22;5074;53.720;10.014;2022-10-26T04:38:03;7.90;99.90
10070;DHT22;5074;53.720;10.014;2022-10-26T04:40:33;7.80;99.90
10070;DHT22;5074;53.720;10.014;2022-10-26T04:43:01;7.80;99.90
10070;DHT22;5074;53.720;10.014;2022-10-26T04:45:29;7.70;99.90
10070;DHT22;5074;53.720;10.014;2022-10-26T04:47:59;7.80;99.90
10070;DHT22;5074;53.720;10.014;2022-10-26T04:50:28;7.70;99.90
10070;DHT22;5074;53.720;10.014;2022-10-26T04:52:56;7.70;99.90
10070;DHT22;5074;53.720;10.014;2022-10-26T04:55:24;7.70;99.90
10070;DHT22;5074;53.720;10.014;2022-10-26T04:57:52;7.80;99.90
10070;DHT22;5074;53.720;10.014;2022-10-26T05:00:25;7.80;99.90
10070;DHT22;5074;53.720;10.014;2022-10-26T05:02:57;7.90;99.90
10070;DHT22;5074;53.720;10.014;2022-10-26T05:05:27;7.90;99.90
10070;DHT22;5074;53.720;10.014;2022-10-26T05:07:57;7.90;99.90
10070;DHT22;5074;53.720;10.014;2022-10-26T05:10:25;7.90;99.90
10070;DHT22;5074;53.720;10.014;2022-10-26T05:12:54;7.90;99.90
10070;DHT22;5074;53.720;10.014;2022-10-26T05:15:25;7.80;99.90
10070;DHT22;5074;53.720;10.014;2022-10-26T05:17:53;7.80;99.90
10070;DHT22;5074;53.720;10.014;2022-10-26T05:20:24;7.80;99.90
10070;DHT22;5074;53.720;10.014;2022-10-26T05:22:55;7.80;99.90
10070;DHT22;5074;53.720;10.014;2022-10-26T05:25:24;7.60;99.90
10070;DHT22;5074;53.720;10.014;2022-10-26T05:27:56;7.50;99.90
10070;DHT22;5074;53.720;10.014;2022-10-26T05:30:25;7.50;99.90
10070;DHT22;5074;53.720;10.014;2022-10-26T05:32:54;7.60;99.90
10070;DHT22;5074;53.720;10.014;2022-10-26T05:35:23;7.50;99.90
10070;DHT22;5074;53.720;10.014;2022-10-26T05:37:52;7.50;99.90
10070;DHT22;5074;53.720;10.014;2022-10-26T05:40:20;7.60;99.90
10070;DHT22;5074;53.720;10.014;2022-10-26T05:42:48;7.60;99.90
10070;DHT22;5074;53.720;10.014;2022-10-26T05:45:17;7.50;99.90
10070;DHT22;5074;53.720;10.014;2022-10-26T05:47:45;7.50;99.90
10070;DHT22;5074;53.720;10.014;2022-10-26T05:50:14;7.50;99.90
10070;DHT22;5074;53.720;10.014;2022-10-26T05:52:44;7.60;99.90
10070;DHT22;5074;53.720;10.014;2022-10-26T05:55:14;7.50;99.90
10070;DHT22;5074;53.720;10.014;2022-10-26T05:57:44;7.60;99.90
10070;DHT22;5074;53.720;10.014;2022-10-26T06:00:16;7.40;99.90
10070;DHT22;5074;53.720;10.014;2022-10-26T06:02:53;7.40;99.90
10070;DHT22;5074;53.720;10.014;2022-10-26T06:05:35;7.40;99.90
10070;DHT22;5074;53.720;10.014;2022-10-26T06:08:10;7.40;99.90
10070;DHT22;5074;53.720;10.014;2022-10-26T06:10:39;7.30;99.90
10070;DHT22;5074;53.720;10.014;2022-10-26T06:13:07;7.30;99.90
10070;DHT22;5074;53.720;10.014;2022-10-26T06:15:38;7.30;99.90
10070;DHT22;5074;53.720;10.014;2022-10-26T06:18:17;7.30;99.90
10070;DHT22;5074;53.720;10.014;2022-10-26T06:20:54;7.30;99.90
10070;DHT22;5074;53.720;10.014;2022-10-26T06:23:41;7.30;99.90
10070;DHT22;5074;53.720;10.014;2022-10-26T06:26:16;7.30;99.90
10070;DHT22;5074;53.720;10.014;2022-10-26T06:28:56;7.30;99.90
10070;DHT22;5074;53.720;10.014;2022-10-26T06:31:33;7.30;99.90
10070;DHT22;5074;53.720;10.014;2022-10-26T06:34:01;7.30;99.90
10070;DHT22;5074;53.720;10.014;2022-10-26T06:36:30;7.30;99.90
10070;DHT22;5074;53.720;10.014;2022-10-26T06:39:01;7.30;99.90
10070;DHT22;5074;53.720;10.014;2022-10-26T06:41:32;7.30;99.90
10070;DHT22;5074;53.720;10.014;2022-10-26T06:44:02;7.30;99.90
10070;DHT22;5074;53.720;10.014;2022-10-26T06:46:35;7.30;99.90
10070;DHT22;5074;53.720;10.014;2022-10-26T06:49:07;7.30;99.90
10070;DHT22;5074;53.720;10.014;2022-10-26T06:51:45;7.30;99.90
10070;DHT22;5074;53.720;10.014;2022-10-26T06:54:21;7.30;99.90
10070;DHT22;5074;53.720;10.014;2022-10-26T06:56:54;7.40;99.90
10070;DHT22;5074;53.720;10.014;2022-10-26T06:59:27;7.40;99.90
10070;DHT22;5074;53.720;10.014;2022-10-26T07:02:01;7.50;99.90
10070;DHT22;5074;53.720;10.014;2022-10-26T07:04:32;7.50;99.90
10070;DHT22;5074;53.720;10.014;2022-10-26T07:07:00;7.60;99.90
10070;DHT22;5074;53.720;10.014;2022-10-26T07:09:29;7.60;99.90
10070;DHT22;5074;53.720;10.014;2022-10-26T07:11:57;7.70;99.90
10070;DHT22;5074;53.720;10.014;2022-10-26T07:14:25;7.80;99.90
10070;DHT22;5074;53.720;10.014;2022-10-26T07:16:53;7.90;99.90
10070;DHT22;5074;53.720;10.014;2022-10-26T07:19:22;7.90;99.90
10070;DHT22;5074;53.720;10.014;2022-10-26T07:21:52;8.00;99.90
10070;DHT22;5074;53.720;10.014;2022-10-26T07:24:22;8.10;99.90
10070;DHT22;5074;53.720;10.014;2022-10-26T07:26:52;8.20;99.90
10070;DHT22;5074;53.720;10.014;2022-10-26T07:29:20;8.30;99.90
10070;DHT22;5074;53.720;10.014;2022-10-26T07:31:48;8.40;99.90
10070;DHT22;5074;53.720;10.014;2022-10-26T07:34:17;8.50;99.90
10070;DHT22;5074;53.720;10.014;2022-10-26T07:36:45;8.50;99.90
10070;DHT22;5074;53.720;10.014;2022-10-26T07:39:13;8.50;99.90
10070;DHT22;5074;53.720;10.014;2022-10-26T07:41:41;8.60;99.90
10070;DHT22;5074;53.720;10.014;2022-10-26T07:44:10;8.80;99.90
10070;DHT22;5074;53.720;10.014;2022-10-26T07:46:38;8.90;99.90
10070;DHT22;5074;53.720;10.014;2022-10-26T07:49:06;8.90;99.90
10070;DHT22;5074;53.720;10.014;2022-10-26T07:51:34;9.00;99.90
10070;DHT22;5074;53.720;10.014;2022-10-26T07:54:03;9.00;99.90
10070;DHT22;5074;53.720;10.014;2022-10-26T07:56:31;9.20;99.90
10070;DHT22;5074;53.720;10.014;2022-10-26T07:58:59;9.20;99.90
10070;DHT22;5074;53.720;10.014;2022-10-26T08:01:28;9.20;99.90
10070;DHT22;5074;53.720;10.014;2022-10-26T08:03:56;9.30;99.90
10070;DHT22;5074;53.720;10.014;2022-10-26T08:06:24;9.40;99.90
10070;DHT22;5074;53.720;10.014;2022-10-26T08:08:52;9.50;99.90
10070;DHT22;5074;53.720;10.014;2022-10-26T08:11:20;9.50;99.90
10070;DHT22;5074;53.720;10.014;2022-10-26T08:13:50;9.60;99.90
10070;DHT22;5074;53.720;10.014;2022-10-26T08:16:18;9.70;99.90
10070;DHT22;5074;53.720;10.014;2022-10-26T08:18:48;9.80;99.90
10070;DHT22;5074;53.720;10.014;2022-10-26T08:21:17;9.80;99.90
10070;DHT22;5074;53.720;10.014;2022-10-26T08:24:01;9.80;99.90
10070;DHT22;5074;53.720;10.014;2022-10-26T08:26:29;9.90;99.90
10070;DHT22;5074;53.720;10.014;2022-10-26T08:28:57;9.90;99.90
10070;DHT22;5074;53.720;10.014;2022-10-26T08:31:25;10.00;99.90
10070;DHT22;5074;53.720;10.014;2022-10-26T08:33:54;10.10;99.90
10070;DHT22;5074;53.720;10.014;2022-10-26T08:36:22;10.10;99.90
10070;DHT22;5074;53.720;10.014;2022-10-26T08:38:52;10.10;99.90
10070;DHT22;5074;53.720;10.014;2022-10-26T08:41:21;10.20;99.90
10070;DHT22;5074;53.720;10.014;2022-10-26T08:43:58;10.30;99.90
10070;DHT22;5074;53.720;10.014;2022-10-26T08:46:31;10.40;99.90
10070;DHT22;5074;53.720;10.014;2022-10-26T08:49:08;10.50;99.90
10070;DHT22;5074;53.720;10.014;2022-10-26T08:51:46;10.50;99.90
10070;DHT22;5074;53.720;10.014;2022-10-26T08:54:18;10.60;99.90
10070;DHT22;5074;53.720;10.014;2022-10-26T08:56:56;10.70;99.90
10070;DHT22;5074;53.720;10.014;2022-10-26T08:59:28;10.80;99.90
10070;DHT22;5074;53.720;10.014;2022-10-26T09:02:01;10.80;99.90
10070;DHT22;5074;53.720;10.014;2022-10-26T09:04:31;10.90;99.90
10070;DHT22;5074;53.720;10.014;2022-10-26T09:07:01;10.90;99.90
10070;DHT22;5074;53.720;10.014;2022-10-26T09:09:37;11.00;99.90
10070;DHT22;5074;53.720;10.014;2022-10-26T09:12:15;11.10;99.90
10070;DHT22;5074;53.720;10.014;2022-10-26T09:14:53;11.10;99.90
10070;DHT22;5074;53.720;10.014;2022-10-26T09:17:34;11.20;99.90
10070;DHT22;5074;53.720;10.014;2022-10-26T09:20:17;11.30;99.90
10070;DHT22;5074;53.720;10.014;2022-10-26T09:22:55;11.40;99.90
10070;DHT22;5074;53.720;10.014;2022-10-26T09:25:30;11.40;99.90
10070;DHT22;5074;53.720;10.014;2022-10-26T09:28:06;11.50;99.90
10070;DHT22;5074;53.720;10.014;2022-10-26T09:30:40;11.60;99.90
10070;DHT22;5074;53.720;10.014;2022-10-26T09:33:13;11.70;99.90
10070;DHT22;5074;53.720;10.014;2022-10-26T09:35:45;11.70;99.90
10070;DHT22;5074;53.720;10.014;2022-10-26T09:38:18;11.70;99.90
10070;DHT22;5074;53.720;10.014;2022-10-26T09:40:51;11.80;99.90
10070;DHT22;5074;53.720;10.014;2022-10-26T09:43:25;12.00;99.90
10070;DHT22;5074;53.720;10.014;2022-10-26T09:45:58;12.00;99.90
10070;DHT22;5074;53.720;10.014;2022-10-26T09:48:27;12.10;99.90
10070;DHT22;5074;53.720;10.014;2022-10-26T09:51:02;12.20;99.90
10070;DHT22;5074;53.720;10.014;2022-10-26T09:53:30;12.20;99.90
10070;DHT22;5074;53.720;10.014;2022-10-26T09:56:00;12.30;99.90
10070;DHT22;5074;53.720;10.014;2022-10-26T09:58:33;12.40;99.90
10070;DHT22;5074;53.720;10.014;2022-10-26T10:01:04;12.50;99.90
10070;DHT22;5074;53.720;10.014;2022-10-26T10:03:32;12.60;99.90
10070;DHT22;5074;53.720;10.014;2022-10-26T10:06:14;12.60;99.90
10070;DHT22;5074;53.720;10.014;2022-10-26T10:08:45;12.60;99.90
10070;DHT22;5074;53.720;10.014;2022-10-26T10:11:38;12.70;99.90
10070;DHT22;5074;53.720;10.014;2022-10-26T10:14:08;12.70;99.90
10070;DHT22;5074;53.720;10.014;2022-10-26T10:16:48;12.80;99.90
10070;DHT22;5074;53.720;10.014;2022-10-26T10:19:22;12.80;99.90
10070;DHT22;5074;53.720;10.014;2022-10-26T10:21:54;13.00;99.90
10070;DHT22;5074;53.720;10.014;2022-10-26T10:24:25;13.00;99.90
10070;DHT22;5074;53.720;10.014;2022-10-26T10:26:57;13.10;99.90
10070;DHT22;5074;53.720;10.014;2022-10-26T10:29:27;13.10;99.90
10070;DHT22;5074;53.720;10.014;2022-10-26T10:31:57;13.20;99.90
10070;DHT22;5074;53.720;10.014;2022-10-26T10:34:26;13.20;99.90
10070;DHT22;5074;53.720;10.014;2022-10-26T10:36:58;13.20;99.90
10070;DHT22;5074;53.720;10.014;2022-10-26T10:39:33;13.40;99.90
10070;DHT22;5074;53.720;10.014;2022-10-26T10:42:10;13.40;99.90
10070;DHT22;5074;53.720;10.014;2022-10-26T10:44:43;13.50;99.90
10070;DHT22;5074;53.720;10.014;2022-10-26T10:47:17;13.60;99.90
10070;DHT22;5074;53.720;10.014;2022-10-26T10:49:52;13.70;99.90
10070;DHT22;5074;53.720;10.014;2022-10-26T10:52:26;13.70;99.90
10070;DHT22;5074;53.720;10.014;2022-10-26T10:55:01;13.70;99.90
10070;DHT22;5074;53.720;10.014;2022-10-26T10:57:44;13.90;99.90
10070;DHT22;5074;53.720;10.014;2022-10-26T11:00:23;14.00;99.90
10070;DHT22;5074;53.720;10.014;2022-10-26T11:03:03;14.10;99.90
10070;DHT22;5074;53.720;10.014;2022-10-26T11:05:56;14.10;99.90
10070;DHT22;5074;53.720;10.014;2022-10-26T11:08:32;14.20;99.90
10070;DHT22;5074;53.720;10.014;2022-10-26T11:11:05;14.10;99.90
10070;DHT22;5074;53.720;10.014;2022-10-26T11:13:37;14.20;99.90
10070;DHT22;5074;53.720;10.014;2022-10-26T11:16:11;14.20;99.90
10070;DHT22;5074;53.720;10.014;2022-10-26T11:18:47;14.30;99.90
10070;DHT22;5074;53.720;10.014;2022-10-26T11:21:23;14.30;99.90
10070;DHT22;5074;53.720;10.014;2022-10-26T11:24:02;14.30;99.90
10070;DHT22;5074;53.720;10.014;2022-10-26T11:26:40;14.30;99.90
10070;DHT22;5074;53.720;10.014;2022-10-26T11:29:16;14.30;99.90
10070;DHT22;5074;53.720;10.014;2022-10-26T11:31:51;14.30;99.90
10070;DHT22;5074;53.720;10.014;2022-10-26T11:34:25;14.40;99.90
10070;DHT22;5074;53.720;10.014;2022-10-26T11:37:01;14.50;99.90
10070;DHT22;5074;53.720;10.014;2022-10-26T11:39:35;14.50;99.90
10070;DHT22;5074;53.720;10.014;2022-10-26T11:42:12;14.60;99.90
10070;DHT22;5074;53.720;10.014;2022-10-26T11:44:49;14.70;99.90
10070;DHT22;5074;53.720;10.014;2022-10-26T11:47:25;14.80;99.90
10070;DHT22;5074;53.720;10.014;2022-10-26T11:50:02;14.90;99.90
10070;DHT22;5074;53.720;10.014;2022-10-26T11:52:34;14.90;99.90
10070;DHT22;5074;53.720;10.014;2022-10-26T11:55:08;14.90;99.90
10070;DHT22;5074;53.720;10.014;2022-10-26T11:57:37;15.00;99.90
10070;DHT22;5074;53.720;10.014;2022-10-26T12:00:08;15.00;99.90
10070;DHT22;5074;53.720;10.014;2022-10-26T12:02:44;15.10;99.90
10070;DHT22;5074;53.720;10.014;2022-10-26T12:05:18;15.20;99.90
10070;DHT22;5074;53.720;10.014;2022-10-26T12:07:49;15.30;99.90
10070;DHT22;5074;53.720;10.014;2022-10-26T12:10:22;15.40;99.90
10070;DHT22;5074;53.720;10.014;2022-10-26T12:13:01;15.50;99.90
10070;DHT22;5074;53.720;10.014;2022-10-26T12:15:39;15.60;99.90
10070;DHT22;5074;53.720;10.014;2022-10-26T12:18:32;15.70;99.90
10070;DHT22;5074;53.720;10.014;2022-10-26T12:21:22;15.60;99.90
10070;DHT22;5074;53.720;10.014;2022-10-26T12:23:55;15.60;99.90
10070;DHT22;5074;53.720;10.014;2022-10-26T12:29:28;15.60;99.90
10070;DHT22;5074;53.720;10.014;2022-10-26T12:35:29;15.60;99.90
10070;DHT22;5074;53.720;10.014;2022-10-26T12:38:00;15.70;99.90
10070;DHT22;5074;53.720;10.014;2022-10-26T12:40:48;15.80;99.90
10070;DHT22;5074;53.720;10.014;2022-10-26T12:43:37;15.90;99.90
10070;DHT22;5074;53.720;10.014;2022-10-26T12:52:21;16.20;99.90
10070;DHT22;5074;53.720;10.014;2022-10-26T12:58:29;16.40;99.90
10070;DHT22;5074;53.720;10.014;2022-10-26T13:07:35;16.50;99.90
10070;DHT22;5074;53.720;10.014;2022-10-26T13:10:14;16.60;99.90
10070;DHT22;5074;53.720;10.014;2022-10-26T13:12:47;16.60;99.90
10070;DHT22;5074;53.720;10.014;2022-10-26T13:15:21;16.70;99.90
10070;DHT22;5074;53.720;10.014;2022-10-26T13:17:55;16.70;99.90
10070;DHT22;5074;53.720;10.014;2022-10-26T13:20:28;16.80;99.90
10070;DHT22;5074;53.720;10.014;2022-10-26T13:22:57;16.80;99.90
10070;DHT22;5074;53.720;10.014;2022-10-26T13:25:31;16.80;99.90
10070;DHT22;5074;53.720;10.014;2022-10-26T13:28:00;16.80;99.90
10070;DHT22;5074;53.720;10.014;2022-10-26T13:30:40;16.80;99.90
10070;DHT22;5074;53.720;10.014;2022-10-26T13:33:15;16.80;99.90
10070;DHT22;5074;53.720;10.014;2022-10-26T13:35:48;16.80;99.90
10070;DHT22;5074;53.720;10.014;2022-10-26T13:38:21;16.70;99.90
10070;DHT22;5074;53.720;10.014;2022-10-26T13:40:52;16.70;99.90
10070;DHT22;5074;53.720;10.014;2022-10-26T13:43:34;16.70;99.90
10070;DHT22;5074;53.720;10.014;2022-10-26T13:46:05;16.70;99.90
10070;DHT22;5074;53.720;10.014;2022-10-26T13:48:35;16.70;99.90
10070;DHT22;5074;53.720;10.014;2022-10-26T13:51:10;16.60;99.90
10070;DHT22;5074;53.720;10.014;2022-10-26T13:53:45;16.70;99.90
10070;DHT22;5074;53.720;10.014;2022-10-26T13:56:23;16.80;99.90
10070;DHT22;5074;53.720;10.014;2022-10-26T13:58:56;16.90;99.90
10070;DHT22;5074;53.720;10.014;2022-10-26T14:01:28;17.00;99.90
10070;DHT22;5074;53.720;10.014;2022-10-26T14:03:57;17.10;99.90
10070;DHT22;5074;53.720;10.014;2022-10-26T14:06:26;17.10;99.90
10070;DHT22;5074;53.720;10.014;2022-10-26T14:09:00;17.10;99.90
10070;DHT22;5074;53.720;10.014;2022-10-26T14:11:32;17.10;99.90
10070;DHT22;5074;53.720;10.014;2022-10-26T14:14:02;17.10;99.90
10070;DHT22;5074;53.720;10.014;2022-10-26T14:16:32;17.10;99.90
10070;DHT22;5074;53.720;10.014;2022-10-26T14:19:01;17.00;99.90
10070;DHT22;5074;53.720;10.014;2022-10-26T14:21:30;16.80;99.90
10070;DHT22;5074;53.720;10.014;2022-10-26T14:23:58;16.80;99.90
10070;DHT22;5074;53.720;10.014;2022-10-26T14:26:38;16.70;99.90
10070;DHT22;5074;53.720;10.014;2022-10-26T14:29:12;16.70;99.90
10070;DHT22;5074;53.720;10.014;2022-10-26T14:31:44;16.60;99.90
10070;DHT22;5074;53.720;10.014;2022-10-26T14:34:12;16.50;99.90
10070;DHT22;5074;53.720;10.014;2022-10-26T14:36:41;16.50;99.90
10070;DHT22;5074;53.720;10.014;2022-10-26T14:39:15;16.50;99.90
10070;DHT22;5074;53.720;10.014;2022-10-26T14:41:51;16.50;99.90
10070;DHT22;5074;53.720;10.014;2022-10-26T14:44:21;16.50;99.90
10070;DHT22;5074;53.720;10.014;2022-10-26T14:46:52;16.40;99.90
10070;DHT22;5074;53.720;10.014;2022-10-26T14:49:21;16.30;99.90
10070;DHT22;5074;53.720;10.014;2022-10-26T14:51:55;16.30;99.90
10070;DHT22;5074;53.720;10.014;2022-10-26T14:54:24;16.20;99.90
10070;DHT22;5074;53.720;10.014;2022-10-26T14:56:55;16.10;99.90
10070;DHT22;5074;53.720;10.014;2022-10-26T14:59:29;16.00;99.90
10070;DHT22;5074;53.720;10.014;2022-10-26T15:02:00;15.90;99.90
10070;DHT22;5074;53.720;10.014;2022-10-26T15:04:40;15.80;99.90
10070;DHT22;5074;53.720;10.014;2022-10-26T15:07:22;15.80;99.90
10070;DHT22;5074;53.720;10.014;2022-10-26T15:09:51;15.70;99.90
10070;DHT22;5074;53.720;10.014;2022-10-26T15:12:20;15.60;99.90
10070;DHT22;5074;53.720;10.014;2022-10-26T15:14:53;15.50;99.90
10070;DHT22;5074;53.720;10.014;2022-10-26T15:17:34;15.50;99.90
10070;DHT22;5074;53.720;10.014;2022-10-26T15:20:05;15.40;99.90
10070;DHT22;5074;53.720;10.014;2022-10-26T15:22:40;15.30;99.90
10070;DHT22;5074;53.720;10.014;2022-10-26T15:25:13;15.20;99.90
10070;DHT22;5074;53.720;10.014;2022-10-26T15:27:46;15.10;99.90
10070;DHT22;5074;53.720;10.014;2022-10-26T15:30:22;15.10;99.90
10070;DHT22;5074;53.720;10.014;2022-10-26T15:32:53;15.00;99.90
10070;DHT22;5074;53.720;10.014;2022-10-26T15:35:29;15.00;99.90
10070;DHT22;5074;53.720;10.014;2022-10-26T15:37:58;14.90;99.90
10070;DHT22;5074;53.720;10.014;2022-10-26T15:40:27;14.90;99.90
10070;DHT22;5074;53.720;10.014;2022-10-26T15:42:58;14.80;99.90
10070;DHT22;5074;53.720;10.014;2022-10-26T15:45:28;14.80;99.90
10070;DHT22;5074;53.720;10.014;2022-10-26T15:48:15;14.70;99.90
10070;DHT22;5074;53.720;10.014;2022-10-26T15:50:45;14.60;99.90
10070;DHT22;5074;53.720;10.014;2022-10-26T15:53:15;14.30;99.90
10070;DHT22;5074;53.720;10.014;2022-10-26T15:55:46;14.20;99.90
10070;DHT22;5074;53.720;10.014;2022-10-26T15:58:15;14.00;99.90
10070;DHT22;5074;53.720;10.014;2022-10-26T16:00:43;13.90;99.90
10070;DHT22;5074;53.720;10.014;2022-10-26T16:03:13;13.80;99.90
10070;DHT22;5074;53.720;10.014;2022-10-26T16:05:44;13.80;99.90
10070;DHT22;5074;53.720;10.014;2022-10-26T16:08:13;13.80;99.90
10070;DHT22;5074;53.720;10.014;2022-10-26T16:10:44;13.70;99.90
10070;DHT22;5074;53.720;10.014;2022-10-26T16:13:14;13.60;99.90
10070;DHT22;5074;53.720;10.014;2022-10-26T16:15:42;13.50;99.90
10070;DHT22;5074;53.720;10.014;2022-10-26T16:18:10;13.50;99.90
10070;DHT22;5074;53.720;10.014;2022-10-26T16:20:43;13.50;99.90
10070;DHT22;5074;53.720;10.014;2022-10-26T16:23:12;13.50;99.90
10070;DHT22;5074;53.720;10.014;2022-10-26T16:25:41;13.60;99.90
10070;DHT22;5074;53.720;10.014;2022-10-26T16:28:13;13.60;99.90
10070;DHT22;5074;53.720;10.014;2022-10-26T16:30:43;13.70;99.90
10070;DHT22;5074;53.720;10.014;2022-10-26T16:33:11;13.90;99.90
10070;DHT22;5074;53.720;10.014;2022-10-26T16:35:40;14.00;99.90
10070;DHT22;5074;53.720;10.014;2022-10-26T16:38:08;14.10;99.90
10070;DHT22;5074;53.720;10.014;2022-10-26T16:40:36;14.10;99.90
10070;DHT22;5074;53.720;10.014;2022-10-26T16:43:07;14.10;99.90